Time;durP1;ratioP1;P1;durP2;ratioP2;P2;SDS_P1;SDS_P2;PMS_P1;PMS_P2;Temp;Humidity;BMP_temperature;BMP_pressure;BME280_temperature;BME280_humidity;BME280_pressure;Samples;Min_cycle;Max_cycle;Signal;HPM_P1;HPM_P2
2024/03/14 00:00:16;;;;;;;;;57.50;44.00;;;;;-143.90;100.00;75953.78;4962143;28;102587;-75
2024/03/14 00:02:47;;;;;;;;;70.33;54.33;;;;;-143.90;100.00;75972.38;4969558;28;103012;-75
2024/03/14 00:05:15;;;;;;;;;69.67;53.33;;;;;-143.90;100.00;75966.19;4968625;28;108236;-74
2024/03/14 00:07:41;;;;;;;;;61.00;44.33;;;;;-143.90;100.00;75953.78;4968172;28;107879;-74
2024/03/14 00:10:09;;;;;;;;;75.33;56.33;;;;;-143.90;100.00;75953.78;4958102;28;102416;-75
2024/03/14 00:12:36;;;;;;;;;72.67;52.33;;;;;-143.90;100.00;75949.63;4970634;28;102211;-74
2024/03/14 00:15:04;;;;;;;;;65.67;46.00;;;;;-143.90;100.00;75941.38;4969419;28;104180;-74
2024/03/14 00:17:32;;;;;;;;;81.00;59.00;;;;;-143.90;100.00;75966.19;4970932;28;103184;-75
2024/03/14 00:20:00;;;;;;;;;77.00;57.33;;;;;-143.90;100.00;75962.03;4959696;28;102500;-74
2024/03/14 00:22:27;;;;;;;;;66.00;47.00;;;;;-143.90;100.00;75949.63;4970198;28;102259;-74
2024/03/14 00:24:54;;;;;;;;;58.00;44.33;;;;;-143.90;100.00;75947.56;4960845;28;104107;-74
2024/03/14 00:27:20;;;;;;;;;71.67;52.67;;;;;-143.90;100.00;75957.91;4965043;28;102436;-73
2024/03/14 00:29:47;;;;;;;;;79.33;60.33;;;;;-143.90;100.00;75974.44;4967395;28;101959;-74
2024/03/14 00:32:14;;;;;;;;;84.00;61.67;;;;;-143.90;100.00;75974.44;4968634;28;102219;-75
2024/03/14 00:34:41;;;;;;;;;80.00;57.00;;;;;-143.90;100.00;75962.03;4967349;28;104193;-75
2024/03/14 00:37:08;;;;;;;;;80.67;59.67;;;;;-143.90;100.00;75957.91;4970949;28;102112;-75
2024/03/14 00:39:35;;;;;;;;;64.33;49.67;;;;;-143.90;100.00;75953.78;4964520;28;101950;-74
2024/03/14 00:42:03;;;;;;;;;67.67;50.00;;;;;-143.90;100.00;75953.78;4964690;28;102159;-74
2024/03/14 00:44:31;;;;;;;;;65.33;45.67;;;;;-143.90;100.00;75941.38;4965540;28;104244;-74
2024/03/14 00:46:58;;;;;;;;;56.00;46.00;;;;;-143.90;100.00;75937.22;4968565;28;102007;-74
2024/03/14 00:49:25;;;;;;;;;60.33;48.00;;;;;-143.90;100.00;75945.50;4984378;28;101975;-74
2024/03/14 00:51:51;;;;;;;;;57.50;43.25;;;;;-143.90;100.00;75939.28;4965256;28;102306;-74
2024/03/14 00:54:18;;;;;;;;;42.25;37.00;;;;;-143.90;100.00;75939.28;4967738;28;104004;-75
2024/03/14 00:56:46;;;;;;;;;56.25;42.25;;;;;-143.90;100.00;75945.50;4969821;28;102212;-74
2024/03/14 00:59:13;;;;;;;;;71.33;55.00;;;;;-143.90;100.00;75974.44;4965474;28;103199;-74
2024/03/14 01:01:46;;;;;;;;;69.67;53.33;;;;;-143.90;100.00;75970.31;4965402;28;102342;-74
2024/03/14 01:04:13;;;;;;;;;64.33;45.33;;;;;-143.90;100.00;75959.97;4961273;28;103770;-74
2024/03/14 01:06:40;;;;;;;;;60.33;43.33;;;;;-143.90;100.00;75955.84;4967035;28;102012;-75
2024/03/14 01:09:08;;;;;;;;;69.00;53.67;;;;;-143.90;100.00;75966.19;4966323;28;102130;-74
2024/03/14 01:11:35;;;;;;;;;66.00;51.33;;;;;-143.90;100.00;75974.44;4965616;28;101809;-74
2024/03/14 01:14:01;;;;;;;;;63.67;50.00;;;;;-143.90;100.00;75966.19;4960823;28;104037;-74
2024/03/14 01:16:29;;;;;;;;;58.33;44.00;;;;;-143.90;100.00;75968.25;4965932;28;102186;-74
2024/03/14 01:18:56;;;;;;;;;61.67;49.00;;;;;-143.90;100.00;75974.44;4966564;28;102664;-74
2024/03/14 01:21:23;;;;;;;;;68.33;49.67;;;;;-143.90;100.00;75972.38;4967074;28;101946;-74
2024/03/14 01:23:50;;;;;;;;;57.67;45.00;;;;;-143.90;100.00;75964.13;4966183;28;104081;-73
2024/03/14 01:26:16;;;;;;;;;53.50;38.00;;;;;-143.90;100.00;75959.97;4972463;28;102395;-74
2024/03/14 01:28:43;;;;;;;;;56.67;43.67;;;;;-143.90;100.00;75974.44;4963707;28;101944;-74
2024/03/14 01:31:11;;;;;;;;;94.25;70.75;;;;;-143.90;100.00;76022.00;4969202;28;104229;-74
2024/03/14 01:33:38;;;;;;;;;87.33;64.00;;;;;-143.90;100.00;76007.53;4968070;28;104241;-74
2024/03/14 01:36:04;;;;;;;;;77.33;57.33;;;;;-143.90;100.00;75991.00;4962767;28;102290;-75
2024/03/14 01:38:31;;;;;;;;;72.00;55.67;;;;;-143.90;100.00;75991.00;4965839;28;102151;-74
2024/03/14 01:40:58;;;;;;;;;75.00;57.00;;;;;-143.90;100.00;75980.66;4970529;28;101961;-74
2024/03/14 01:43:24;;;;;;;;;65.33;47.67;;;;;-143.90;100.00;75974.44;4967419;28;104198;-74
2024/03/14 01:45:51;;;;;;;;;50.00;41.00;;;;;-143.90;100.00;75968.25;4963039;28;102240;-74
2024/03/14 01:48:18;;;;;;;;;71.67;55.33;;;;;-143.90;100.00;76003.41;4968351;28;102183;-74
2024/03/14 01:50:44;;;;;;;;;80.67;59.33;;;;;-143.90;100.00;76001.34;4969141;28;102417;-74
2024/03/14 01:53:11;;;;;;;;;81.33;57.00;;;;;-143.90;100.00;75997.19;4971328;28;104071;-74
2024/03/14 01:55:38;;;;;;;;;62.00;45.33;;;;;-143.90;100.00;75984.78;4973957;28;102353;-74
2024/03/14 01:58:09;;;;;;;;;65.00;49.33;;;;;-143.90;100.00;75982.72;4966106;28;102321;-75
2024/03/14 02:00:49;;;;;;;;;65.00;50.33;;;;;-143.90;100.00;75991.00;4974134;28;101949;-75
2024/03/14 02:03:17;;;;;;;;;65.67;49.00;;;;;-143.90;100.00;76001.34;4969445;28;109001;-74
2024/03/14 02:05:49;;;;;;;;;57.00;45.67;;;;;-143.90;100.00;75999.25;4969986;28;102735;-74
2024/03/14 02:08:16;;;;;;;;;67.67;49.00;;;;;-143.90;100.00;76003.41;4962136;28;102053;-74
2024/03/14 02:10:42;;;;;;;;;77.33;55.00;;;;;-143.90;100.00;76024.06;4972773;28;102353;-74
2024/03/14 02:13:10;;;;;;;;;88.67;68.00;;;;;-143.90;100.00;76042.69;4969456;28;104132;-74
2024/03/14 02:15:36;;;;;;;;;90.67;64.33;;;;;-143.90;100.00;76022.00;4973943;28;102639;-74
2024/03/14 02:18:04;;;;;;;;;77.33;54.67;;;;;-143.90;100.00;76019.94;4964140;28;102338;-74
2024/03/14 02:20:31;;;;;;;;;91.00;61.67;;;;;-143.90;100.00;76017.88;4966465;28;102046;-74
2024/03/14 02:22:58;;;;;;;;;82.00;60.00;;;;;-143.90;100.00;76028.22;4969949;28;104133;-75
2024/03/14 02:25:25;;;;;;;;;78.33;59.33;;;;;-143.90;100.00;76030.28;4972849;28;102286;-74
2024/03/14 02:27:52;;;;;;;;;83.00;62.33;;;;;-143.90;100.00;76046.81;4967763;28;101872;-74
2024/03/14 02:30:19;;;;;;;;;86.33;65.00;;;;;-143.90;100.00;76057.16;4974045;28;102378;-74
2024/03/14 02:32:48;;;;;;;;;84.00;62.00;;;;;-143.90;100.00;76044.75;4970310;28;108690;-74
2024/03/14 02:35:15;;;;;;;;;77.33;58.33;;;;;-143.90;100.00;76036.47;4968206;28;102679;-75
2024/03/14 02:37:41;;;;;;;;;64.33;50.67;;;;;-143.90;100.00;76019.94;4970211;28;102408;-74
2024/03/14 02:40:11;;;;;;;;;56.67;45.33;;;;;-143.90;100.00;76015.81;4965608;28;102420;-74
2024/03/14 02:42:38;;;;;;;;;64.67;50.00;;;;;-143.90;100.00;76017.88;4968730;28;104179;-74
2024/03/14 02:45:06;;;;;;;;;60.00;46.00;;;;;-143.90;100.00;76019.94;4971070;28;102375;-74
2024/03/14 02:47:32;;;;;;;;;93.00;68.33;;;;;-143.90;100.00;76015.81;4971608;28;101967;-75
2024/03/14 02:49:59;;;;;;;;;70.33;50.67;;;;;-143.90;100.00;76007.53;4966480;28;102231;-74
2024/03/14 02:52:26;;;;;;;;;70.33;53.33;;;;;-143.90;100.00;76017.88;4970305;28;104346;-74
2024/03/14 02:54:53;;;;;;;;;66.67;51.00;;;;;-143.90;100.00;76011.66;4971555;28;102702;-73
2024/03/14 02:57:19;;;;;;;;;77.33;54.67;;;;;-143.90;100.00;76009.59;4967437;28;102594;-74
2024/03/14 02:59:46;;;;;;;;;79.33;60.00;;;;;-143.90;100.00;76007.53;4970123;28;102285;-74
2024/03/14 03:02:15;;;;;;;;;69.33;55.67;;;;;-143.90;100.00;76007.53;4958230;28;104514;-74
2024/03/14 03:04:44;;;;;;;;;55.67;41.00;;;;;-143.90;100.00;75999.25;4967828;28;102508;-74
2024/03/14 03:07:12;;;;;;;;;63.33;44.33;;;;;-143.90;100.00;76007.53;4965443;28;101988;-74
2024/03/14 03:09:41;;;;;;;;;62.67;44.33;;;;;-143.90;100.00;76007.53;4970535;28;102123;-74
2024/03/14 03:12:07;;;;;;;;;54.33;43.67;;;;;-143.90;100.00;76003.41;4957063;28;104051;-74
2024/03/14 03:14:36;;;;;;;;;40.00;36.25;;;;;-143.90;100.00;75995.13;4969297;28;102441;-74
2024/03/14 03:17:05;;;;;;;;;48.00;37.25;;;;;-143.90;100.00;75999.25;4968513;28;102722;-75
2024/03/14 03:19:32;;;;;;;;;77.00;55.00;;;;;-143.90;100.00;76013.75;4970279;28;102014;-74
2024/03/14 03:21:58;;;;;;;;;85.33;60.00;;;;;-143.90;100.00;76028.22;4963631;28;104215;-74
2024/03/14 03:24:25;;;;;;;;;75.67;56.67;;;;;-143.90;100.00;76019.94;4966183;28;103166;-74
2024/03/14 03:26:51;;;;;;;;;88.33;64.33;;;;;-143.90;100.00;76019.94;4969505;28;102185;-73
2024/03/14 03:29:19;;;;;;;;;76.67;57.33;;;;;-143.90;100.00;76009.59;4972071;28;102066;-75
2024/03/14 03:31:46;;;;;;;;;87.00;65.33;;;;;-143.90;100.00;76015.81;4970014;28;109906;-74
2024/03/14 03:34:13;;;;;;;;;72.00;51.33;;;;;-143.90;100.00;76003.41;4963526;28;102481;-74
2024/03/14 03:36:39;;;;;;;;;75.33;53.67;;;;;-143.90;100.00;76003.41;4968017;28;102418;-74
2024/03/14 03:39:12;;;;;;;;;73.33;54.00;;;;;-143.90;100.00;76011.66;4969888;28;102291;-74
2024/03/14 03:41:39;;;;;;;;;70.00;53.33;;;;;-143.90;100.00;76015.81;4967180;28;103946;-74
2024/03/14 03:44:05;;;;;;;;;69.67;53.00;;;;;-143.90;100.00;75997.19;4955288;28;102965;-74
2024/03/14 03:46:33;;;;;;;;;72.33;53.33;;;;;-143.90;100.00;75995.13;4967611;28;101886;-74
2024/03/14 03:48:59;;;;;;;;;70.33;54.33;;;;;-143.90;100.00;76005.47;4967237;28;102788;-74
2024/03/14 03:51:26;;;;;;;;;66.67;50.33;;;;;-143.90;100.00;76003.41;4967860;28;104399;-74
2024/03/14 03:53:53;;;;;;;;;73.00;53.00;;;;;-143.90;100.00;76003.41;4956405;28;102420;-74
2024/03/14 03:56:20;;;;;;;;;68.33;53.00;;;;;-143.90;100.00;75995.13;4973573;28;102447;-74
2024/03/14 03:58:47;;;;;;;;;60.00;44.00;;;;;-143.90;100.00;75991.00;4969710;28;102502;-74
2024/03/14 04:01:14;;;;;;;;;50.75;42.75;;;;;-143.90;100.00;75997.19;4967893;28;104069;-74
2024/03/14 04:03:42;;;;;;;;;45.50;36.25;;;;;-143.90;100.00;75986.84;4968918;28;102201;-74
2024/03/14 04:06:15;;;;;;;;;37.50;30.50;;;;;-143.90;100.00;75978.59;4960716;28;102072;-74
2024/03/14 04:08:45;;;;;;;;;30.25;24.25;;;;;-143.90;100.00;75984.78;4969972;28;103213;-75
2024/03/14 04:11:12;;;;;;;;;38.50;34.00;;;;;-143.90;100.00;75978.59;4968891;28;103959;-73
2024/03/14 04:13:39;;;;;;;;;31.75;28.25;;;;;-143.90;100.00;75978.59;4965114;28;102141;-74
2024/03/14 04:16:06;;;;;;;;;31.50;31.00;;;;;-143.90;100.00;75976.53;4961568;28;102176;-74
2024/03/14 04:18:34;;;;;;;;;31.00;27.25;;;;;-143.90;100.00;75968.25;4970426;28;108246;-74
2024/03/14 04:21:07;;;;;;;;;19.75;17.25;;;;;-143.90;100.00;75966.19;4966785;28;104021;-73
2024/03/14 04:23:35;;;;;;;;;33.00;30.75;;;;;-143.90;100.00;75980.66;4968338;28;102782;-73
2024/03/14 04:26:02;;;;;;;;;34.50;28.00;;;;;-143.90;100.00;75974.44;4975149;28;102523;-73
2024/03/14 04:28:29;;;;;;;;;29.75;27.50;;;;;-143.90;100.00;75978.59;4971025;28;102073;-74
2024/03/14 04:30:56;;;;;;;;;34.50;31.75;;;;;-143.90;100.00;75974.44;4965974;28;104194;-73
2024/03/14 04:33:23;;;;;;;;;27.50;24.75;;;;;-143.90;100.00;75970.31;4969396;28;102057;-73
2024/03/14 04:35:50;;;;;;;;;22.25;20.75;;;;;-143.90;100.00;75962.03;4960851;28;102228;-74
2024/03/14 04:38:18;;;;;;;;;26.50;23.75;;;;;-143.90;100.00;75962.03;4969277;28;102285;-74
2024/03/14 04:40:45;;;;;;;;;22.75;20.25;;;;;-143.90;100.00;75966.19;4950036;28;104079;-74
2024/03/14 04:43:13;;;;;;;;;21.75;19.00;;;;;-143.90;100.00;75976.53;4972074;28;101991;-74
2024/03/14 04:45:40;;;;;;;;;45.00;34.75;;;;;-143.90;100.00;75991.00;4966950;28;103064;-73
2024/03/14 04:48:08;;;;;;;;;44.25;35.25;;;;;-143.90;100.00;75980.66;4961106;28;102533;-74
2024/03/14 04:50:36;;;;;;;;;32.75;30.25;;;;;-143.90;100.00;75976.53;4966492;28;104060;-74
2024/03/14 04:53:04;;;;;;;;;37.00;33.25;;;;;-143.90;100.00;75970.31;4968568;28;103056;-74
2024/03/14 04:55:32;;;;;;;;;61.33;47.67;;;;;-143.90;100.00;75982.72;4968319;28;102563;-74
2024/03/14 04:57:58;;;;;;;;;67.67;54.33;;;;;-143.90;100.00;75991.00;4959917;28;102116;-73
2024/03/14 05:00:25;;;;;;;;;55.00;42.00;;;;;-143.90;100.00;75999.25;4963436;28;105898;-74
2024/03/14 05:02:55;;;;;;;;;72.67;56.00;;;;;-143.90;100.00;76024.06;4965452;28;102368;-74
2024/03/14 05:05:22;;;;;;;;;87.00;63.00;;;;;-143.90;100.00;76044.75;4965084;28;102214;-75
2024/03/14 05:07:53;;;;;;;;;86.00;63.33;;;;;-143.90;100.00;76053.03;4966986;28;102233;-74
2024/03/14 05:10:20;;;;;;;;;90.00;64.00;;;;;-143.90;100.00;76061.31;4967707;28;109830;-74
2024/03/14 05:12:48;;;;;;;;;83.33;60.00;;;;;-143.90;100.00;76055.09;4965734;28;102341;-74
2024/03/14 05:15:15;;;;;;;;;69.00;53.00;;;;;-143.90;100.00;76038.56;4966600;28;102327;-74
2024/03/14 05:17:44;;;;;;;;;58.00;46.00;;;;;-143.90;100.00;76040.63;4963346;28;103284;-74
2024/03/14 05:20:13;;;;;;;;;64.33;50.67;;;;;-143.90;100.00;76046.81;4961319;28;104256;-74
2024/03/14 05:22:41;;;;;;;;;71.00;52.00;;;;;-143.90;100.00;76057.16;4966864;28;102274;-74
2024/03/14 05:25:11;;;;;;;;;67.67;52.33;;;;;-143.90;100.00;76044.75;4965580;28;102387;-75
2024/03/14 05:27:39;;;;;;;;;66.33;54.33;;;;;-143.90;100.00;76044.75;4971171;28;102088;-74
2024/03/14 05:30:06;;;;;;;;;52.67;43.33;;;;;-143.90;100.00;76036.47;4961170;28;104182;-73
2024/03/14 05:32:34;;;;;;;;;53.67;43.00;;;;;-143.90;100.00;76028.22;4967094;28;102200;-75
2024/03/14 05:35:00;;;;;;;;;57.00;45.00;;;;;-143.90;100.00;76036.47;4960581;28;102478;-75
2024/03/14 05:37:27;;;;;;;;;89.00;65.00;;;;;-143.90;100.00;76040.63;4966378;28;102417;-75
2024/03/14 05:39:56;;;;;;;;;82.67;60.67;;;;;-143.90;100.00;76038.56;4959774;28;104528;-75
2024/03/14 05:42:23;;;;;;;;;70.67;52.33;;;;;-143.90;100.00;76036.47;4967542;28;102338;-75
2024/03/14 05:44:55;;;;;;;;;65.67;45.33;;;;;-143.90;100.00;76032.34;4969626;28;102197;-75
2024/03/14 05:47:22;;;;;;;;;70.00;52.00;;;;;-143.90;100.00;76028.22;4965800;28;102404;-75
2024/03/14 05:49:49;;;;;;;;;69.33;54.33;;;;;-143.90;100.00;76028.22;4964193;28;104223;-76
2024/03/14 05:52:15;;;;;;;;;66.33;53.67;;;;;-143.90;100.00;76034.41;4980127;28;102467;-76
2024/03/14 05:54:42;;;;;;;;;68.67;54.00;;;;;-143.90;100.00;76019.94;4964207;28;102329;-75
2024/03/14 05:57:09;;;;;;;;;68.33;49.33;;;;;-143.90;100.00;76019.94;4969315;28;102339;-76
2024/03/14 05:59:36;;;;;;;;;59.00;44.00;;;;;-143.90;100.00;76015.81;4967097;28;106034;-76
2024/03/14 06:02:03;;;;;;;;;52.00;39.33;;;;;-143.90;100.00;76007.53;4963782;28;103134;-76
2024/03/14 06:04:30;;;;;;;;;57.00;43.33;;;;;-143.90;100.00;76013.75;4965744;28;101960;-76
2024/03/14 06:06:57;;;;;;;;;76.00;56.33;;;;;-143.90;100.00;76017.88;4968435;28;102040;-76
2024/03/14 06:09:39;;;;;;;;;91.00;65.00;;;;;-143.90;100.00;76028.22;4966084;28;104042;-76
2024/03/14 06:12:07;;;;;;;;;111.25;83.75;;;;;-143.90;100.00;76044.75;4960644;28;103087;-76
2024/03/14 06:14:34;;;;;;;;;92.50;65.75;;;;;-143.90;100.00;76042.69;4962152;28;102165;-76
2024/03/14 06:17:01;;;;;;;;;102.50;82.50;;;;;-143.90;100.00;76017.88;4965373;28;102017;-76
2024/03/14 06:19:28;;;;;;;;;88.67;63.33;;;;;-143.90;100.00;76011.66;4967445;28;104181;-76
2024/03/14 06:21:56;;;;;;;;;88.00;64.67;;;;;-143.90;100.00;76003.41;4959537;28;102827;-76
2024/03/14 06:24:24;;;;;;;;;88.67;66.00;;;;;-143.90;100.00;76007.53;4969244;28;102218;-76
2024/03/14 06:26:51;;;;;;;;;77.67;62.67;;;;;-143.90;100.00;75995.13;4971340;28;102559;-74
2024/03/14 06:29:17;;;;;;;;;66.33;55.67;;;;;-143.90;100.00;75982.72;4968592;28;109529;-74
2024/03/14 06:31:44;;;;;;;;;73.33;54.00;;;;;-143.90;100.00;75974.44;4967926;28;102248;-74
2024/03/14 06:34:11;;;;;;;;;62.67;43.33;;;;;-143.90;100.00;75955.84;4954331;28;102273;-75
2024/03/14 06:36:37;;;;;;;;;53.00;43.00;;;;;-143.90;100.00;75945.50;4972059;28;102428;-75
2024/03/14 06:39:07;;;;;;;;;49.50;38.00;;;;;-143.90;100.00;75924.81;4971856;28;104107;-75
2024/03/14 06:41:34;;;;;;;;;69.00;54.00;;;;;-143.90;100.00;75926.88;4970650;28;102335;-75
2024/03/14 06:44:01;;;;;;;;;54.33;41.67;;;;;-143.90;100.00;75924.81;4963454;28;102520;-75
2024/03/14 06:46:28;;;;;;;;;43.25;38.75;;;;;-143.90;100.00;75908.28;4969611;28;102297;-75
2024/03/14 06:48:55;;;;;;;;;51.00;39.00;;;;;-143.90;100.00;75891.75;4966153;28;104094;-75
2024/03/14 06:51:22;;;;;;;;;65.00;49.67;;;;;-143.90;100.00;75887.59;4971486;28;102584;-75
2024/03/14 06:53:49;;;;;;;;;74.00;55.67;;;;;-143.90;100.00;75873.13;4968048;28;102086;-75
2024/03/14 06:56:17;;;;;;;;;65.00;50.33;;;;;-143.90;100.00;75856.59;4970820;28;102649;-75
2024/03/14 06:58:46;;;;;;;;;76.00;57.67;;;;;-143.90;100.00;75850.38;4970757;28;104182;-75
2024/03/14 07:01:15;;;;;;;;;69.33;52.33;;;;;-143.90;100.00;75842.13;4967388;28;102787;-75
2024/03/14 07:03:42;;;;;;;;;66.33;51.33;;;;;-143.90;100.00;75817.31;4970868;28;102250;-75
2024/03/14 07:06:12;;;;;;;;;80.33;61.00;;;;;-143.90;100.00;75806.97;4965656;28;105012;-75
2024/03/14 07:08:39;;;;;;;;;69.33;52.00;;;;;-143.90;100.00;75784.22;4972158;28;104089;-75
2024/03/14 07:11:06;;;;;;;;;60.75;47.25;;;;;-143.90;100.00;75771.81;4964368;28;102657;-75
2024/03/14 07:13:35;;;;;;;;;77.00;59.00;;;;;-143.90;100.00;75780.09;4977425;28;101860;-75
2024/03/14 07:16:09;;;;;;;;;91.33;69.00;;;;;-143.90;100.00;75773.88;4976906;28;101658;-75
2024/03/14 07:18:36;;;;;;;;;86.67;67.67;;;;;-143.90;100.00;75773.88;4983064;28;103483;-75
2024/03/14 07:21:04;;;;;;;;;82.33;61.67;;;;;-143.90;100.00;75769.75;4982496;28;102383;-76
2024/03/14 07:23:33;;;;;;;;;87.00;66.33;;;;;-143.90;100.00;75780.09;4984442;28;101792;-76
2024/03/14 07:26:02;;;;;;;;;85.00;62.67;;;;;-143.90;100.00;75780.09;4979540;28;101622;-76
2024/03/14 07:28:31;;;;;;;;;86.00;61.67;;;;;-143.90;100.00;75782.16;4981897;28;103279;-75
2024/03/14 07:30:58;;;;;;;;;80.67;61.00;;;;;-143.90;100.00;75788.34;4979966;28;102334;-75
2024/03/14 07:33:25;;;;;;;;;75.67;58.33;;;;;-143.90;100.00;75833.84;4979637;28;102761;-76
2024/03/14 07:35:53;;;;;;;;;65.00;46.67;;;;;-143.90;100.00;75842.13;4980698;28;101832;-74
2024/03/14 07:38:27;;;;;;;;;79.00;59.00;;;;;-143.90;100.00;75852.44;4984126;28;103335;-75
2024/03/14 07:40:55;;;;;;;;;63.00;49.67;;;;;-143.90;100.00;75825.56;4976465;28;102008;-75
2024/03/14 07:43:22;;;;;;;;;66.00;52.00;;;;;-143.90;100.00;75825.56;4982410;28;101753;-74
2024/03/14 07:45:49;;;;;;;;;68.67;52.00;;;;;-143.90;100.00;75800.75;4965135;28;101913;-75
2024/03/14 07:48:17;;;;;;;;;45.00;31.50;;;;;-143.90;100.00;75771.81;4972874;28;111676;-75
2024/03/14 07:50:45;;;;;;;;;58.75;46.75;;;;;-143.90;100.00;75753.19;4966078;28;101760;-75
2024/03/14 07:53:12;;;;;;;;;43.75;38.25;;;;;-143.90;100.00;75734.59;4979055;28;101704;-75
2024/03/14 07:55:39;;;;;;;;;34.00;30.00;;;;;-143.90;100.00;75713.91;4974348;28;101807;-75
2024/03/14 07:58:08;;;;;;;;;40.00;31.50;;;;;-143.90;100.00;75695.31;4961390;28;103379;-75
2024/03/14 08:00:36;;;;;;;;;38.50;30.00;;;;;-143.90;100.00;75684.97;4981727;28;101959;-75
2024/03/14 08:03:04;;;;;;;;;27.50;23.75;;;;;-143.90;100.00;75664.28;4965631;28;102058;-74
2024/03/14 08:05:34;;;;;;;;;41.75;35.00;;;;;-143.90;100.00;75637.41;4969377;28;101806;-75
2024/03/14 08:08:01;;;;;;;;;36.50;32.50;;;;;-143.90;100.00;75633.28;4960721;28;103390;-75
2024/03/14 08:10:48;;;;;;;;;38.75;32.75;;;;;-143.90;100.00;75618.81;4978086;28;101801;-75
2024/03/14 08:13:21;;;;;;;;;50.50;40.00;;;;;-143.90;100.00;75610.53;4974188;28;101475;-75
2024/03/14 08:15:52;;;;;;;;;59.00;47.25;;;;;-143.90;100.00;75631.22;4975042;28;101798;-75
2024/03/14 08:18:22;;;;;;;;;75.67;54.00;;;;;-143.90;100.00;75639.47;4970384;28;108014;-74
2024/03/14 08:20:52;;;;;;;;;68.50;54.25;;;;;-143.90;100.00;75639.47;4980869;28;101699;-75
2024/03/14 08:23:20;;;;;;;;;75.67;57.00;;;;;-143.90;100.00;75635.34;4983590;28;101694;-75
2024/03/14 08:25:47;;;;;;;;;78.67;58.00;;;;;-143.90;100.00;75639.47;4968246;28;102556;-75
2024/03/14 08:28:15;;;;;;;;;71.00;51.25;;;;;-143.90;100.00;75618.81;4964667;28;103595;-75
2024/03/14 08:30:45;;;;;;;;;48.00;39.50;;;;;-143.90;100.00;75577.44;4972570;28;102166;-76
2024/03/14 08:33:13;;;;;;;;;48.00;36.75;;;;;-143.90;100.00;75540.22;4970900;28;102131;-75
2024/03/14 08:35:42;;;;;;;;;59.25;48.00;;;;;-143.90;100.00;75536.09;4971541;28;101925;-75
2024/03/14 08:38:13;;;;;;;;;70.25;51.25;;;;;-143.90;100.00;75560.91;4970375;28;103523;-76
2024/03/14 08:40:42;;;;;;;;;60.25;48.25;;;;;-143.90;100.00;75527.81;4967736;28;101812;-76
2024/03/14 08:43:11;;;;;;;;;55.50;38.50;;;;;-143.90;100.00;75492.69;4976484;28;102547;-76
2024/03/14 08:45:39;;;;;;;;;58.50;45.75;;;;;-143.90;100.00;75511.28;4951903;28;101670;-76
2024/03/14 08:48:09;;;;;;;;;52.00;38.75;;;;;-143.90;100.00;75492.69;4955932;28;103392;-76
2024/03/14 08:50:40;;;;;;;;;49.00;38.75;;;;;-143.90;100.00;75478.22;4960483;28;102640;-76
2024/03/14 08:53:12;;;;;;;;;35.00;28.50;;;;;-143.90;100.00;75451.31;4961443;28;103961;-75
2024/03/14 08:55:45;;;;;;;;;27.00;24.75;;;;;-143.90;100.00;75428.59;4964457;28;101547;-76
2024/03/14 08:58:12;;;;;;;;;35.00;29.50;;;;;-143.90;100.00;75418.25;4953520;28;103652;-76
2024/03/14 09:00:39;;;;;;;;;28.75;23.00;;;;;-143.90;100.00;75407.91;4962125;28;101865;-76
2024/03/14 09:03:06;;;;;;;;;26.75;25.75;;;;;-143.90;100.00;75395.50;4960953;28;103164;-76
2024/03/14 09:05:33;;;;;;;;;39.00;31.50;;;;;-143.90;100.00;75412.03;4962708;28;101616;-76
2024/03/14 09:08:00;;;;;;;;;58.25;44.50;;;;;-143.90;100.00;75457.53;4955312;28;103885;-76
2024/03/14 09:10:26;;;;;;;;;55.50;44.50;;;;;-143.90;100.00;75457.53;4962556;28;101801;-76
2024/03/14 09:12:54;;;;;;;;;48.50;39.25;;;;;-143.90;100.00;75434.78;4961096;28;101686;-75
2024/03/14 09:15:22;;;;;;;;;48.25;38.50;;;;;-143.90;100.00;75447.19;4965153;28;101666;-75
2024/03/14 09:17:50;;;;;;;;;26.00;25.00;;;;;-143.90;100.00;75409.97;4961050;28;110352;-76
2024/03/14 09:20:19;;;;;;;;;28.00;23.75;;;;;-143.90;100.00;75391.38;4961943;28;102240;-76
2024/03/14 09:22:54;;;;;;;;;31.50;28.00;;;;;-143.90;100.00;75383.09;4959632;28;101573;-76
2024/03/14 09:25:22;;;;;;;;;51.25;41.00;;;;;-143.90;100.00;75443.06;4962751;28;106091;-76
2024/03/14 09:27:51;;;;;;;;;50.50;40.00;;;;;-143.90;100.00;75447.19;4951407;28;107762;-76
2024/03/14 09:30:18;;;;;;;;;49.75;37.00;;;;;-143.90;100.00;75432.72;4948000;28;101684;-76
2024/03/14 09:32:48;;;;;;;;;47.50;37.00;;;;;-143.90;100.00;75424.44;4956844;28;101869;-76
2024/03/14 09:35:25;;;;;;;;;42.25;34.50;;;;;-143.90;100.00;75385.16;4961989;28;101628;-77
2024/03/14 09:37:57;;;;;;;;;39.75;35.50;;;;;-143.90;100.00;75368.63;4947537;28;107910;-77
2024/03/14 09:40:24;;;;;;;;;24.50;19.25;;;;;-143.90;100.00;75329.34;4949739;28;103508;-76
2024/03/14 09:42:59;;;;;;;;;17.75;17.00;;;;;-143.90;100.00;75308.66;4957634;28;102161;-77
2024/03/14 09:45:28;;;;;;;;;17.50;16.00;;;;;-143.90;100.00;75273.53;4980412;28;102755;-77
2024/03/14 09:47:56;;;;;;;;;23.00;18.50;;;;;-143.90;100.00;75267.31;4973145;28;103536;-77
2024/03/14 09:50:26;;;;;;;;;17.25;15.00;;;;;-143.90;100.00;75234.25;4980736;28;102161;-77
2024/03/14 09:52:54;;;;;;;;;20.00;13.75;;;;;-143.90;100.00;75223.91;4978958;28;101508;-74
2024/03/14 09:55:30;;;;;;;;;17.00;16.25;;;;;-143.90;100.00;75230.09;4981538;28;101612;-74
2024/03/14 09:57:57;;;;;;;;;20.00;18.50;;;;;-143.90;100.00;75219.78;4975577;28;107920;-74
2024/03/14 10:00:25;;;;;;;;;16.50;15.00;;;;;-143.90;71.28;75215.63;4978408;28;101613;-76
2024/03/14 10:02:55;;;;;;;;;21.25;18.75;;;;;-143.90;71.47;75209.44;4983238;28;101915;-77
2024/03/14 10:05:22;;;;;;;;;20.25;16.75;;;;;-143.90;72.82;75199.09;4982813;28;101693;-74
2024/03/14 10:07:50;;;;;;;;;28.00;23.75;;;;;-143.90;73.25;75194.97;4984007;28;103475;-75
2024/03/14 10:10:16;;;;;;;;;26.00;22.75;;;;;-143.90;72.06;75201.16;4979221;28;101947;-75
2024/03/14 10:12:54;;;;;;;;;16.00;14.75;;;;;-143.90;70.61;75182.56;4985281;28;102702;-75
2024/03/14 10:15:21;;;;;;;;;23.00;20.75;;;;;-143.90;68.10;75168.09;4979923;28;105697;-75
2024/03/14 10:17:51;;;;;;;;;16.75;14.25;;;;;-143.90;67.68;75155.69;4984843;28;108016;-75
2024/03/14 10:20:19;;;;;;;;;36.25;31.25;;;;;-143.90;66.79;75215.63;4988159;28;101740;-75
2024/03/14 10:22:50;;;;;;;;;49.00;36.75;;;;;-143.90;68.27;75238.38;4982087;28;101499;-75
2024/03/14 10:25:23;;;;;;;;;28.75;22.50;;;;;-143.90;70.16;75209.44;4986136;28;101694;-75
2024/03/14 10:27:54;;;;;;;;;20.00;17.00;;;;;-143.90;70.77;75176.34;4980834;28;108188;-75
2024/03/14 10:30:35;;;;;;;;;30.00;25.50;;;;;-143.90;66.85;75192.91;4980976;28;101531;-75
2024/03/14 10:33:02;;;;;;;;;47.25;39.00;;;;;-143.90;70.92;75244.59;4984869;28;102140;-75
2024/03/14 10:35:33;;;;;;;;;33.75;29.75;;;;;-143.90;70.71;75215.63;4985534;28;101861;-74
2024/03/14 10:38:00;;;;;;;;;22.75;21.25;;;;;-143.90;71.11;75197.03;4975687;28;104286;-74
2024/03/14 10:40:27;;;;;;;;;16.25;13.50;;;;;-143.90;65.18;75188.75;4984193;28;101864;-75
2024/03/14 10:42:55;;;;;;;;;28.25;23.25;;;;;-143.90;67.86;75186.69;4983759;28;101801;-75
2024/03/14 10:45:23;;;;;;;;;34.50;28.25;;;;;-143.90;68.03;75201.16;4984342;28;101700;-75
2024/03/14 10:47:53;;;;;;;;;24.75;22.50;;;;;-143.90;67.99;75194.97;4981492;28;103342;-75
2024/03/14 10:50:21;;;;;;;;;23.25;19.75;;;;;-143.90;64.09;75174.28;4981444;28;101896;-74